Wetterstation Vordersexau
Wetterdaten: Woche 18.06.18 - 24.06.18 (KW25)
Datum Zeit Temp. A. Feuchte A. Luftdruck Regen Wind Richtung Taupunkt Windchill Windben
18.06.2018 00:00 18,1 C 72 % 1019,2 hPa 0,0 l/m 0,0 km/h N 13,0 C 18,1 C 0,0 km/h
18.06.2018 01:00 17,5 C 75 % 1019,2 hPa 0,0 l/m 0,0 km/h N-NO 13,0 C 17,5 C 0,0 km/h
18.06.2018 02:00 16,5 C 77 % 1019,2 hPa 0,0 l/m 0,0 km/h N-NO 12,5 C 16,5 C 0,0 km/h
18.06.2018 03:00 15,8 C 79 % 1019,3 hPa 0,0 l/m 0,0 km/h N-NO 12,2 C 15,8 C 0,0 km/h
18.06.2018 04:00 14,9 C 81 % 1019,4 hPa 0,0 l/m 0,0 km/h N-NO 11,7 C 14,9 C 0,0 km/h
18.06.2018 05:00 14,1 C 82 % 1019,8 hPa 0,0 l/m 0,0 km/h N-NO 11,1 C 14,1 C 0,0 km/h
18.06.2018 06:00 14,5 C 83 % 1019,9 hPa 0,0 l/m 0,0 km/h O-SO 11,6 C 14,5 C 0,0 km/h
18.06.2018 07:00 16,6 C 81 % 1020,2 hPa 0,0 l/m 0,0 km/h S-SO 13,3 C 16,6 C 0,0 km/h
18.06.2018 08:00 18,2 C 76 % 1020,4 hPa 0,0 l/m 0,0 km/h N-NO 13,9 C 18,2 C 0,0 km/h
18.06.2018 09:00 19,4 C 65 % 1020,5 hPa 0,0 l/m 0,0 km/h S 12,6 C 19,4 C 0,0 km/h
18.06.2018 10:00 20,4 C 62 % 1020,3 hPa 0,0 l/m 0,0 km/h SW 12,9 C 20,4 C 0,0 km/h
18.06.2018 11:00 21,9 C 57 % 1020,3 hPa 0,0 l/m 0,0 km/h W-SW 13,0 C 21,9 C 0,0 km/h
18.06.2018 12:00 22,6 C 54 % 1020,2 hPa 0,0 l/m 0,0 km/h W 12,8 C 22,6 C 0,0 km/h
18.06.2018 13:00 23,3 C 50 % 1020,1 hPa 0,0 l/m 5,8 km/h W 12,3 C 23,3 C 3,2 km/h
18.06.2018 14:00 23,7 C 50 % 1019,9 hPa 0,0 l/m 0,0 km/h W 12,6 C 23,7 C 0,0 km/h
18.06.2018 15:00 24,4 C 49 % 1019,5 hPa 0,0 l/m 0,0 km/h N-NW 13,0 C 24,4 C 0,0 km/h
18.06.2018 16:00 24,1 C 50 % 1019,4 hPa 0,0 l/m 0,0 km/h W-SW 13,0 C 24,1 C 0,0 km/h
18.06.2018 17:00 25,1 C 50 % 1019,2 hPa 0,0 l/m 0,0 km/h N 13,9 C 25,1 C 0,0 km/h
18.06.2018 18:00 24,9 C 48 % 1019,4 hPa 0,0 l/m 3,2 km/h N-NO 13,1 C 24,9 C 1,8 km/h
18.06.2018 19:00 24,2 C 52 % 1019,5 hPa 0,0 l/m 0,0 km/h N-NO 13,7 C 24,2 C 0,0 km/h
18.06.2018 20:00 22,6 C 55 % 1019,4 hPa 0,0 l/m 0,0 km/h N 13,1 C 22,6 C 0,0 km/h
18.06.2018 21:00 19,8 C 63 % 1020,2 hPa 0,0 l/m 0,0 km/h N 12,5 C 19,8 C 0,0 km/h
18.06.2018 22:00 17,9 C 71 % 1020,8 hPa 0,0 l/m 0,0 km/h N 12,6 C 17,9 C 0,0 km/h
18.06.2018 23:00 16,9 C 75 % 1021,0 hPa 0,0 l/m 0,0 km/h SO 12,4 C 16,9 C 0,0 km/h
19.06.2018 00:00 16,2 C 76 % 1021,0 hPa 0,0 l/m 0,0 km/h SO 12,0 C 16,2 C 0,0 km/h
19.06.2018 01:00 15,4 C 79 % 1021,2 hPa 0,0 l/m 0,0 km/h SO 11,8 C 15,4 C 0,0 km/h
19.06.2018 02:00 14,6 C 81 % 1021,6 hPa 0,0 l/m 0,0 km/h SO 11,4 C 14,6 C 0,0 km/h
19.06.2018 03:00 15,3 C 81 % 1021,7 hPa 0,0 l/m 0,0 km/h SO 12,1 C 15,3 C 0,0 km/h
19.06.2018 04:00 15,4 C 80 % 1021,8 hPa 0,0 l/m 0,0 km/h SO 12,0 C 15,4 C 0,0 km/h
19.06.2018 05:00 15,0 C 82 % 1022,2 hPa 0,0 l/m 0,0 km/h SO 12,0 C 15,0 C 0,0 km/h
19.06.2018 06:00 15,8 C 82 % 1022,4 hPa 0,0 l/m 0,0 km/h SO 12,7 C 15,8 C 0,0 km/h
19.06.2018 07:00 17,0 C 81 % 1022,5 hPa 0,0 l/m 0,0 km/h SO 13,7 C 17,0 C 0,0 km/h
19.06.2018 08:00 18,5 C 78 % 1022,8 hPa 0,0 l/m 0,0 km/h N 14,6 C 18,5 C 0,0 km/h
19.06.2018 09:00 20,4 C 72 % 1022,7 hPa 0,0 l/m 5,2 km/h S-SW 15,2 C 20,4 C 2,9 km/h
19.06.2018 10:00 21,9 C 65 % 1022,4 hPa 0,0 l/m 0,0 km/h S-SW 15,0 C 21,9 C 0,0 km/h
19.06.2018 11:00 23,6 C 59 % 1022,1 hPa 0,0 l/m 0,0 km/h W-SW 15,1 C 23,6 C 0,0 km/h
19.06.2018 12:00 24,2 C 56 % 1021,9 hPa 0,0 l/m 0,0 km/h SW 14,9 C 24,2 C 0,0 km/h
19.06.2018 13:00 25,1 C 54 % 1021,7 hPa 0,0 l/m 0,0 km/h W-NW 15,1 C 25,1 C 0,0 km/h
19.06.2018 14:00 26,0 C 54 % 1021,0 hPa 0,0 l/m 0,0 km/h N 16,0 C 26,0 C 0,0 km/h
19.06.2018 15:00 26,9 C 51 % 1020,4 hPa 0,0 l/m 0,0 km/h N 15,9 C 26,9 C 0,0 km/h
19.06.2018 16:00 27,6 C 50 % 1020,2 hPa 0,0 l/m 13,0 km/h N-NW 16,2 C 26,7 C 7,2 km/h
19.06.2018 17:00 27,2 C 50 % 1019,9 hPa 0,0 l/m 21,4 km/h N 15,9 C 25,4 C 11,9 km/h
19.06.2018 18:00 26,9 C 50 % 1019,6 hPa 0,0 l/m 7,8 km/h N 15,6 C 26,6 C 4,3 km/h
19.06.2018 19:00 26,3 C 52 % 1019,5 hPa 0,0 l/m 2,6 km/h N-NO 15,6 C 26,3 C 1,4 km/h
19.06.2018 20:00 24,8 C 57 % 1019,4 hPa 0,0 l/m 0,0 km/h N-NO 15,7 C 24,8 C 0,0 km/h
19.06.2018 21:00 22,5 C 63 % 1019,6 hPa 0,0 l/m 0,0 km/h N-NO 15,1 C 22,5 C 0,0 km/h
19.06.2018 22:00 20,5 C 68 % 1019,8 hPa 0,0 l/m 0,0 km/h N-NO 14,4 C 20,5 C 0,0 km/h
19.06.2018 23:00 18,9 C 74 % 1019,9 hPa 0,0 l/m 0,0 km/h O-NO 14,2 C 18,9 C 0,0 km/h
20.06.2018 00:00 18,1 C 78 % 1019,8 hPa 0,0 l/m 0,0 km/h O-NO 14,2 C 18,1 C 0,0 km/h
20.06.2018 01:00 17,0 C 80 % 1019,8 hPa 0,0 l/m 0,0 km/h O-NO 13,5 C 17,0 C 0,0 km/h
20.06.2018 02:00 16,2 C 82 % 1019,5 hPa 0,0 l/m 0,0 km/h O-NO 13,1 C 16,2 C 0,0 km/h
20.06.2018 03:00 15,8 C 82 % 1019,3 hPa 0,0 l/m 0,0 km/h O-NO 12,7 C 15,8 C 0,0 km/h
20.06.2018 04:00 14,9 C 83 % 1019,2 hPa 0,0 l/m 0,0 km/h O-NO 12,0 C 14,9 C 0,0 km/h
20.06.2018 05:00 14,6 C 83 % 1019,0 hPa 0,0 l/m 0,0 km/h O-NO 11,7 C 14,6 C 0,0 km/h
20.06.2018 06:00 15,6 C 83 % 1019,1 hPa 0,0 l/m 0,0 km/h O-NO 12,7 C 15,6 C 0,0 km/h
20.06.2018 07:00 17,9 C 83 % 1019,3 hPa 0,0 l/m 0,0 km/h S-SW 15,0 C 17,9 C 0,0 km/h
20.06.2018 08:00 19,2 C 82 % 1019,3 hPa 0,0 l/m 0,0 km/h SW 16,0 C 19,2 C 0,0 km/h
20.06.2018 09:00 20,9 C 79 % 1019,1 hPa 0,0 l/m 0,0 km/h NW 17,1 C 20,9 C 0,0 km/h
20.06.2018 10:00 22,5 C 74 % 1018,6 hPa 0,0 l/m 0,0 km/h W 17,6 C 22,5 C 0,0 km/h
20.06.2018 11:00 25,4 C 66 % 1018,1 hPa 0,0 l/m 0,0 km/h N 18,6 C 25,4 C 0,0 km/h
20.06.2018 12:00 26,8 C 62 % 1017,6 hPa 0,0 l/m 0,0 km/h W 18,9 C 26,8 C 0,0 km/h
20.06.2018 13:00 27,9 C 58 % 1017,0 hPa 0,0 l/m 0,0 km/h O-NO 18,9 C 27,9 C 0,0 km/h
20.06.2018 14:00 28,9 C 55 % 1016,3 hPa 0,0 l/m 0,0 km/h NW 18,9 C 28,9 C 0,0 km/h
20.06.2018 15:00 29,8 C 53 % 1015,8 hPa 0,0 l/m 7,1 km/h N-NO 19,2 C 29,7 C 4,0 km/h
20.06.2018 16:00 30,4 C 50 % 1015,4 hPa 0,0 l/m 4,5 km/h NW 18,8 C 30,4 C 2,5 km/h
20.06.2018 17:00 30,4 C 48 % 1014,8 hPa 0,0 l/m 5,8 km/h NW 18,1 C 30,4 C 3,2 km/h
20.06.2018 18:00 30,3 C 47 % 1014,9 hPa 0,0 l/m 0,0 km/h N 17,7 C 30,3 C 0,0 km/h
20.06.2018 19:00 29,4 C 47 % 1014,8 hPa 0,0 l/m 0,0 km/h N 16,9 C 29,4 C 0,0 km/h
20.06.2018 20:00 28,0 C 54 % 1014,4 hPa 0,0 l/m 0,0 km/h N-NO 17,8 C 28,0 C 0,0 km/h
20.06.2018 21:00 24,9 C 66 % 1014,8 hPa 0,0 l/m 0,0 km/h NO 18,1 C 24,9 C 0,0 km/h
20.06.2018 22:00 22,9 C 72 % 1015,3 hPa 0,0 l/m 0,0 km/h NO 17,6 C 22,9 C 0,0 km/h
20.06.2018 23:00 21,8 C 74 % 1015,2 hPa 0,0 l/m 0,0 km/h NO 17,0 C 21,8 C 0,0 km/h
21.06.2018 00:00 20,5 C 77 % 1015,1 hPa 0,0 l/m 0,0 km/h NO 16,3 C 20,5 C 0,0 km/h
21.06.2018 01:00 19,6 C 81 % 1014,7 hPa 0,0 l/m 0,0 km/h NO 16,2 C 19,6 C 0,0 km/h
21.06.2018 02:00 18,9 C 82 % 1014,4 hPa 0,0 l/m 0,0 km/h NO 15,8 C 18,9 C 0,0 km/h
21.06.2018 03:00 18,2 C 83 % 1014,2 hPa 0,0 l/m 0,0 km/h NO 15,3 C 18,2 C 0,0 km/h
21.06.2018 04:00 17,8 C 83 % 1014,0 hPa 0,0 l/m 0,0 km/h NO 14,9 C 17,8 C 0,0 km/h
21.06.2018 05:00 17,6 C 83 % 1014,4 hPa 0,0 l/m 0,0 km/h NO 14,7 C 17,6 C 0,0 km/h
21.06.2018 06:00 18,1 C 83 % 1014,8 hPa 0,0 l/m 0,0 km/h O-SO 15,2 C 18,1 C 0,0 km/h
21.06.2018 07:00 20,6 C 83 % 1014,6 hPa 0,0 l/m 0,0 km/h W 17,6 C 20,6 C 0,0 km/h
21.06.2018 08:00 22,6 C 72 % 1014,7 hPa 0,0 l/m 0,0 km/h W-NW 17,3 C 22,6 C 0,0 km/h
21.06.2018 09:00 23,6 C 70 % 1014,5 hPa 0,0 l/m 0,0 km/h N-NW 17,8 C 23,6 C 0,0 km/h
21.06.2018 10:00 24,6 C 63 % 1014,7 hPa 0,0 l/m 0,0 km/h SW 17,1 C 24,6 C 0,0 km/h
21.06.2018 11:00 25,9 C 55 % 1014,8 hPa 0,0 l/m 0,0 km/h W 16,2 C 25,9 C 0,0 km/h
21.06.2018 12:00 26,9 C 48 % 1014,7 hPa 0,0 l/m 0,0 km/h NW 14,9 C 26,9 C 0,0 km/h
21.06.2018 13:00 26,9 C 46 % 1014,3 hPa 0,0 l/m 0,0 km/h W-NW 14,3 C 26,9 C 0,0 km/h
21.06.2018 14:00 26,4 C 47 % 1014,1 hPa 0,0 l/m 0,0 km/h N-NW 14,2 C 26,4 C 0,0 km/h
21.06.2018 15:00 26,9 C 46 % 1014,0 hPa 0,0 l/m 0,0 km/h N-NW 14,3 C 26,9 C 0,0 km/h
21.06.2018 16:00 26,8 C 49 % 1014,2 hPa 0,0 l/m 0,0 km/h N-NO 15,2 C 26,8 C 0,0 km/h
21.06.2018 17:00 24,4 C 55 % 1014,5 hPa 0,0 l/m 1,3 km/h N-NO 14,8 C 24,4 C 0,7 km/h
21.06.2018 18:00 23,0 C 59 % 1015,3 hPa 0,0 l/m 0,0 km/h N-NW 14,5 C 23,0 C 0,0 km/h
21.06.2018 19:00 22,8 C 53 % 1015,8 hPa 0,0 l/m 14,3 km/h N 12,7 C 20,8 C 7,9 km/h
21.06.2018 20:00 21,3 C 53 % 1016,4 hPa 0,0 l/m 15,6 km/h N-NO 11,3 C 18,7 C 8,6 km/h
21.06.2018 21:00 20,2 C 49 % 1017,6 hPa 0,0 l/m 8,4 km/h N 9,1 C 19,4 C 4,7 km/h
21.06.2018 22:00 18,9 C 47 % 1018,6 hPa 0,0 l/m 0,0 km/h N-NW 7,3 C 18,9 C 0,0 km/h
21.06.2018 23:00 17,4 C 49 % 1019,4 hPa 0,0 l/m 8,4 km/h N-NW 6,6 C 16,4 C 4,7 km/h
22.06.2018 00:00 15,6 C 53 % 1019,9 hPa 0,0 l/m 0,0 km/h N-NW 6,1 C 15,6 C 0,0 km/h
22.06.2018 01:00 14,9 C 52 % 1020,3 hPa 0,0 l/m 0,0 km/h N 5,1 C 14,9 C 0,0 km/h
22.06.2018 02:00 13,6 C 53 % 1020,7 hPa 0,0 l/m 0,0 km/h N-NO 4,2 C 13,6 C 0,0 km/h
22.06.2018 03:00 12,1 C 58 % 1021,4 hPa 0,0 l/m 0,0 km/h N-NO 4,1 C 12,1 C 0,0 km/h
22.06.2018 04:00 10,7 C 63 % 1021,8 hPa 0,0 l/m 0,0 km/h N-NO 3,9 C 10,7 C 0,0 km/h
22.06.2018 05:00 9,5 C 67 % 1022,1 hPa 0,0 l/m 0,0 km/h N-NO 3,7 C 9,5 C 0,0 km/h
22.06.2018 06:00 10,1 C 71 % 1022,2 hPa 0,0 l/m 0,0 km/h N-NO 5,1 C 10,1 C 0,0 km/h
22.06.2018 07:00 12,2 C 67 % 1022,6 hPa 0,0 l/m 0,0 km/h N-NW 6,3 C 12,2 C 0,0 km/h
22.06.2018 08:00 13,2 C 64 % 1022,8 hPa 0,0 l/m 0,0 km/h N-NW 6,5 C 13,2 C 0,0 km/h
22.06.2018 09:00 13,9 C 60 % 1023,5 hPa 0,0 l/m 20,1 km/h NW 6,3 C 8,3 C 11,2 km/h
22.06.2018 10:00 14,7 C 55 % 1023,4 hPa 0,0 l/m 0,0 km/h O-SO 5,8 C 14,7 C 0,0 km/h
22.06.2018 11:00 16,3 C 51 % 1023,1 hPa 0,0 l/m 0,0 km/h N-NO 6,1 C 16,3 C 0,0 km/h
22.06.2018 12:00 17,3 C 47 % 1023,2 hPa 0,0 l/m 0,0 km/h N-NO 5,9 C 17,3 C 0,0 km/h
22.06.2018 13:00 18,1 C 48 % 1022,8 hPa 0,0 l/m 3,2 km/h N-NO 6,9 C 18,1 C 1,8 km/h
22.06.2018 14:00 18,8 C 46 % 1022,5 hPa 0,0 l/m 0,0 km/h N-NO 6,9 C 18,8 C 0,0 km/h
22.06.2018 15:00 19,1 C 46 % 1022,5 hPa 0,0 l/m 16,8 km/h O-NO 7,2 C 15,7 C 9,4 km/h
22.06.2018 16:00 18,8 C 46 % 1022,5 hPa 0,0 l/m 1,9 km/h N-NO 6,9 C 18,8 C 1,1 km/h
22.06.2018 17:00 18,8 C 44 % 1022,7 hPa 0,0 l/m 13,6 km/h N-NO 6,3 C 16,2 C 7,6 km/h
22.06.2018 18:00 18,4 C 46 % 1022,6 hPa 0,0 l/m 3,9 km/h N-NW 6,6 C 18,4 C 2,2 km/h
22.06.2018 19:00 17,8 C 48 % 1022,6 hPa 0,0 l/m 11,0 km/h N-NW 6,6 C 15,8 C 6,1 km/h
22.06.2018 20:00 17,1 C 51 % 1022,8 hPa 0,0 l/m 0,0 km/h N-NO 6,9 C 17,1 C 0,0 km/h
22.06.2018 21:00 14,9 C 58 % 1023,1 hPa 0,0 l/m 0,0 km/h O-NO 6,7 C 14,9 C 0,0 km/h
22.06.2018 22:00 13,2 C 65 % 1023,6 hPa 0,0 l/m 0,0 km/h O-NO 6,8 C 13,2 C 0,0 km/h
22.06.2018 23:00 11,9 C 70 % 1023,8 hPa 0,0 l/m 0,0 km/h O-NO 6,6 C 11,9 C 0,0 km/h
23.06.2018 00:00 10,8 C 72 % 1023,7 hPa 0,0 l/m 0,0 km/h O-NO 6,0 C 10,8 C 0,0 km/h
23.06.2018 01:00 9,9 C 76 % 1023,5 hPa 0,0 l/m 0,0 km/h O-SO 5,9 C 9,9 C 0,0 km/h
23.06.2018 02:00 9,4 C 77 % 1023,2 hPa 0,0 l/m 0,0 km/h SO 5,6 C 9,4 C 0,0 km/h
23.06.2018 03:00 8,7 C 80 % 1023,2 hPa 0,0 l/m 0,0 km/h O-SO 5,4 C 8,7 C 0,0 km/h
23.06.2018 04:00 8,2 C 80 % 1023,0 hPa 0,0 l/m 0,0 km/h O-SO 5,0 C 8,2 C 0,0 km/h
23.06.2018 05:00 7,8 C 81 % 1023,4 hPa 0,0 l/m 0,0 km/h O-NO 4,7 C 7,8 C 0,0 km/h
23.06.2018 06:00 8,5 C 82 % 1023,3 hPa 0,0 l/m 0,0 km/h NO 5,6 C 8,5 C 0,0 km/h
23.06.2018 07:00 10,9 C 80 % 1023,4 hPa 0,0 l/m 0,0 km/h W-SW 7,6 C 10,9 C 0,0 km/h
23.06.2018 08:00 12,6 C 77 % 1023,5 hPa 0,0 l/m 0,0 km/h SW 8,7 C 12,6 C 0,0 km/h
23.06.2018 09:00 14,6 C 72 % 1023,0 hPa 0,0 l/m 0,0 km/h NW 9,6 C 14,6 C 0,0 km/h
23.06.2018 10:00 16,6 C 63 % 1022,6 hPa 0,0 l/m 0,0 km/h N-NW 9,5 C 16,6 C 0,0 km/h
23.06.2018 11:00 18,2 C 57 % 1022,5 hPa 0,0 l/m 18,8 km/h W-NW 9,5 C 14,1 C 10,4 km/h
23.06.2018 12:00 18,9 C 53 % 1022,6 hPa 0,0 l/m 0,0 km/h W 9,1 C 18,9 C 0,0 km/h
23.06.2018 13:00 19,4 C 51 % 1022,1 hPa 0,0 l/m 0,0 km/h N-NW 9,0 C 19,4 C 0,0 km/h
23.06.2018 14:00 20,4 C 48 % 1021,5 hPa 0,0 l/m 25,3 km/h N-NO 9,0 C 15,9 C 14,0 km/h
23.06.2018 15:00 21,2 C 47 % 1020,8 hPa 0,0 l/m 1,9 km/h NW 9,4 C 21,2 C 1,1 km/h
23.06.2018 16:00 21,4 C 45 % 1020,9 hPa 0,0 l/m 3,9 km/h N 9,0 C 21,4 C 2,2 km/h
23.06.2018 17:00 21,4 C 43 % 1020,5 hPa 0,0 l/m 9,7 km/h N-NO 8,3 C 20,3 C 5,4 km/h
23.06.2018 18:00 20,9 C 45 % 1020,1 hPa 0,0 l/m 0,0 km/h N-NW 8,5 C 20,9 C 0,0 km/h
23.06.2018 19:00 20,4 C 47 % 1020,2 hPa 0,0 l/m 0,0 km/h N-NW 8,7 C 20,4 C 0,0 km/h
23.06.2018 20:00 19,2 C 51 % 1020,3 hPa 0,0 l/m 0,0 km/h O-SO 8,8 C 19,2 C 0,0 km/h
23.06.2018 21:00 16,3 C 61 % 1020,2 hPa 0,0 l/m 0,0 km/h O-SO 8,8 C 16,3 C 0,0 km/h
23.06.2018 22:00 14,9 C 64 % 1020,7 hPa 0,0 l/m 0,0 km/h O-SO 8,2 C 14,9 C 0,0 km/h
23.06.2018 23:00 13,4 C 70 % 1020,6 hPa 0,0 l/m 0,0 km/h O-SO 8,0 C 13,4 C 0,0 km/h
24.06.2018 00:00 12,1 C 72 % 1020,6 hPa 0,0 l/m 0,0 km/h O-SO 7,2 C 12,1 C 0,0 km/h
24.06.2018 01:00 11,3 C 77 % 1020,3 hPa 0,0 l/m 0,0 km/h O-NO 7,4 C 11,3 C 0,0 km/h
24.06.2018 02:00 11,3 C 78 % 1019,9 hPa 0,0 l/m 0,0 km/h O-NO 7,6 C 11,3 C 0,0 km/h
24.06.2018 03:00 10,9 C 78 % 1019,7 hPa 0,0 l/m 0,0 km/h N-NO 7,2 C 10,9 C 0,0 km/h
24.06.2018 04:00 10,6 C 79 % 1019,1 hPa 0,0 l/m 0,0 km/h N-NO 7,1 C 10,6 C 0,0 km/h
24.06.2018 05:00 10,4 C 81 % 1019,1 hPa 0,0 l/m 0,0 km/h N-NO 7,3 C 10,4 C 0,0 km/h
24.06.2018 06:00 11,1 C 81 % 1019,3 hPa 0,0 l/m 0,0 km/h N-NW 8,0 C 11,1 C 0,0 km/h
24.06.2018 07:00 12,5 C 81 % 1019,2 hPa 0,0 l/m 0,0 km/h W-NW 9,3 C 12,5 C 0,0 km/h
24.06.2018 08:00 13,4 C 77 % 1019,5 hPa 0,0 l/m 0,0 km/h W 9,5 C 13,4 C 0,0 km/h
24.06.2018 09:00 14,6 C 73 % 1019,3 hPa 0,0 l/m 0,0 km/h W-SW 9,8 C 14,6 C 0,0 km/h
24.06.2018 10:00 16,8 C 69 % 1019,1 hPa 0,0 l/m 0,0 km/h NW 11,1 C 16,8 C 0,0 km/h
24.06.2018 11:00 18,3 C 64 % 1018,8 hPa 0,0 l/m 0,0 km/h W-SW 11,4 C 18,3 C 0,0 km/h
24.06.2018 12:00 19,3 C 61 % 1018,5 hPa 0,0 l/m 9,1 km/h S-SW 11,6 C 18,2 C 5,0 km/h
24.06.2018 13:00 20,4 C 57 % 1017,9 hPa 0,0 l/m 0,0 km/h N-NW 11,6 C 20,4 C 0,0 km/h
24.06.2018 14:00 21,9 C 52 % 1017,4 hPa 0,0 l/m 11,0 km/h NW 11,6 C 20,5 C 6,1 km/h
24.06.2018 15:00 21,2 C 52 % 1017,4 hPa 0,0 l/m 3,2 km/h N-NW 10,9 C 21,2 C 1,8 km/h
24.06.2018 16:00 22,3 C 49 % 1017,1 hPa 0,0 l/m 0,0 km/h N-NW 11,1 C 22,3 C 0,0 km/h
24.06.2018 17:00 22,4 C 48 % 1016,7 hPa 0,0 l/m 11,7 km/h N-NW 10,8 C 20,9 C 6,5 km/h
24.06.2018 18:00 21,8 C 47 % 1016,8 hPa 0,0 l/m 6,5 km/h N 10,0 C 21,8 C 3,6 km/h
24.06.2018 19:00 20,3 C 51 % 1017,0 hPa 0,0 l/m 5,8 km/h NO 9,8 C 20,3 C 3,2 km/h
24.06.2018 20:00 19,1 C 54 % 1017,2 hPa 0,0 l/m 0,0 km/h NO 9,6 C 19,1 C 0,0 km/h
24.06.2018 21:00 17,4 C 60 % 1017,3 hPa 0,0 l/m 0,0 km/h NO 9,6 C 17,4 C 0,0 km/h
24.06.2018 22:00 15,8 C 67 % 1017,8 hPa 0,0 l/m 0,0 km/h NO 9,7 C 15,8 C 0,0 km/h
24.06.2018 23:00 15,3 C 69 % 1017,8 hPa 0,0 l/m 0,0 km/h NO 9,6 C 15,3 C 0,0 km/h
Min-Datum _ 23.06.18 23.06.18 21.06.18 - 18.06.18 - 22.06.18 23.06.18 18.06.18
_ Min-Zeit 05:53 17:53 04:53 - 00:53 - 05:53 05:53 00:53
Minimum _ 7,8 C 43 % 1014,0 hPa - 0,0 km/h - 3,7 C 7,8 C 0,0 km/h
Max-Datum _ 20.06.18 18.06.18 22.06.18 18.06.18 23.06.18 - 20.06.18 20.06.18 23.06.18
_ Max-Zeit 16:53 06:53 23:53 00:53 14:53 - 15:53 16:53 14:53
Maximum _ 30,4 C 83 % 1023,8 hPa 0,0 l/m 25,3 km/h
N-NO
- 19,2 C 30,4 C 14,0 km/h
N-NO
Durchschnitt _ 18,9 C 64 % 1019,5 hPa #0,0 l/m 1,8 km/h N-NO 11,6 C 18,7 C 1,0 km/h
www.sexauwetter.de